Time;durP1;ratioP1;P1;durP2;ratioP2;P2;SDS_P1;SDS_P2;PMS_P1;PMS_P2;Temp;Humidity;BMP_temperature;BMP_pressure;BME280_temperature;BME280_humidity;BME280_pressure;Samples;Min_cycle;Max_cycle;Signal;HPM_P1;HPM_P2
2022/07/05 00:01:30;;;;;;;;;;;;;;;10.13;62.28;96197.84;6266625;28;19938;-65
2022/07/05 00:04:32;;;;;;;;;;;;;;;10.12;62.21;96206.69;6268357;28;19929;-65
2022/07/05 00:07:37;;;;;;;;;;;;;;;10.21;62.12;96200.75;6268226;28;19925;-65
2022/07/05 00:10:42;;;;;;;;;;;;;;;10.19;62.08;96213.19;6268869;28;19924;-65
2022/07/05 00:13:46;;;;;;;;;;;;;;;10.19;61.96;96207.94;6268168;28;19929;-65
2022/07/05 00:16:49;;;;;;;;;;;;;;;10.21;62.07;96211.25;6268815;28;19925;-65
2022/07/05 00:19:53;;;;;;;;;;;;;;;10.24;61.90;96210.19;6267974;28;19920;-64
2022/07/05 00:22:58;;;;;;;;;;;;;;;10.15;62.18;96211.72;6268646;28;20434;-65
2022/07/05 00:25:59;;;;;;;;;;;;;;;10.19;62.18;96214.94;6267676;28;19935;-65
2022/07/05 00:29:04;;;;;;;;;;;;;;;10.17;62.18;96209.81;6268543;28;20047;-65
2022/07/05 00:32:05;;;;;;;;;;;;;;;10.27;61.95;96216.09;6268203;28;19932;-65
2022/07/05 00:35:07;;;;;;;;;;;;;;;10.29;61.97;96218.63;6270532;28;19925;-65
2022/07/05 00:38:08;;;;;;;;;;;;;;;10.33;61.93;96222.69;6259826;28;20390;-65
2022/07/05 00:41:12;;;;;;;;;;;;;;;10.39;61.96;96218.75;6267174;28;19947;-65
2022/07/05 00:44:15;;;;;;;;;;;;;;;10.43;61.72;96220.22;6267070;28;19928;-65
2022/07/05 00:47:19;;;;;;;;;;;;;;;10.48;61.74;96218.09;6266712;28;19925;-65
2022/07/05 00:50:22;;;;;;;;;;;;;;;10.58;61.65;96213.81;6266364;28;19925;-64
2022/07/05 00:53:27;;;;;;;;;;;;;;;10.73;61.21;96212.66;6267980;28;19924;-65
2022/07/05 00:56:28;;;;;;;;;;;;;;;10.92;61.06;96211.25;6258637;28;19925;-65
2022/07/05 00:59:30;;;;;;;;;;;;;;;10.88;61.05;96210.66;6267016;28;19931;-65
2022/07/05 01:02:33;;;;;;;;;;;;;;;10.90;60.96;96213.16;6266974;28;20031;-65
2022/07/05 01:05:37;;;;;;;;;;;;;;;10.98;60.95;96216.91;6262590;28;19925;-65
2022/07/05 01:08:41;;;;;;;;;;;;;;;11.19;60.51;96219.66;6249261;28;19925;-64
2022/07/05 01:11:46;;;;;;;;;;;;;;;11.35;60.23;96228.97;6267911;28;19929;-64
2022/07/05 01:14:50;;;;;;;;;;;;;;;11.42;60.15;96231.03;6267012;28;20409;-65
2022/07/05 01:17:54;;;;;;;;;;;;;;;11.49;60.29;96226.09;6267061;28;19947;-65
2022/07/05 01:20:58;;;;;;;;;;;;;;;11.65;60.02;96226.56;6267111;28;19925;-64
2022/07/05 01:24:00;;;;;;;;;;;;;;;11.73;59.74;96233.88;6267115;28;19925;-65
2022/07/05 01:27:05;;;;;;;;;;;;;;;11.72;59.90;96231.34;6266612;28;19928;-65
2022/07/05 01:30:07;;;;;;;;;;;;;;;11.69;60.01;96233.28;6265215;28;19924;-65
2022/07/05 01:33:08;;;;;;;;;;;;;;;11.59;60.23;96228.84;6266476;28;19924;-65
2022/07/05 01:36:13;;;;;;;;;;;;;;;11.32;60.82;96242.38;6273971;28;19925;-64
2022/07/05 01:39:15;;;;;;;;;;;;;;;11.16;61.67;96240.94;6265180;28;19931;-64
2022/07/05 01:42:16;;;;;;;;;;;;;;;11.26;61.70;96251.59;6266373;28;20023;-64
2022/07/05 01:48:39;;;;;;;;;;;;;;;12.09;59.85;96267.03;6266388;28;19928;-65
2022/07/05 01:51:50;;;;;;;;;;;;;;;12.33;59.26;96263.34;6267206;28;21543;-64
2022/07/05 01:54:51;;;;;;;;;;;;;;;12.46;58.84;96253.47;6264612;28;19948;-64
2022/07/05 01:57:52;;;;;;;;;;;;;;;12.39;58.96;96247.00;6263566;28;20074;-64
2022/07/05 02:00:56;;;;;;;;;;;;;;;12.25;59.43;96255.22;6263663;28;19925;-65
2022/07/05 02:03:57;;;;;;;;;;;;;;;12.07;59.88;96253.13;6247948;28;19932;-65
2022/07/05 02:06:58;;;;;;;;;;;;;;;11.86;60.69;96258.31;6264991;28;19925;-65
2022/07/05 02:10:02;;;;;;;;;;;;;;;12.01;60.48;96260.69;6267006;28;19925;-65
2022/07/05 02:13:06;;;;;;;;;;;;;;;12.40;59.73;96263.69;6266077;28;19931;-65
2022/07/05 02:16:10;;;;;;;;;;;;;;;12.55;59.31;96258.00;6270817;28;20305;-65
2022/07/05 02:19:11;;;;;;;;;;;;;;;12.70;59.05;96255.03;6268560;28;19947;-64
2022/07/05 02:22:12;;;;;;;;;;;;;;;12.90;58.74;96270.03;6271101;28;20056;-64
2022/07/05 02:25:15;;;;;;;;;;;;;;;13.07;58.51;96267.78;6270745;28;19973;-64
2022/07/05 02:28:16;;;;;;;;;;;;;;;13.20;58.16;96279.84;6268901;28;19931;-65
2022/07/05 02:31:20;;;;;;;;;;;;;;;13.32;57.91;96270.06;6271049;28;19959;-64
2022/07/05 02:34:23;;;;;;;;;;;;;;;13.34;58.13;96275.22;6270322;28;19925;-65
2022/07/05 02:37:27;;;;;;;;;;;;;;;13.57;57.45;96281.19;6271019;28;19929;-65
2022/07/05 02:40:31;;;;;;;;;;;;;;;13.82;56.79;96267.50;6271237;28;19924;-64
2022/07/05 02:43:33;;;;;;;;;;;;;;;14.09;56.18;96276.59;6267839;28;19925;-66
2022/07/05 02:46:34;;;;;;;;;;;;;;;14.18;56.12;96272.31;6269926;28;19936;-65
2022/07/05 02:49:37;;;;;;;;;;;;;;;14.32;55.95;96280.72;6270287;28;19925;-65
2022/07/05 02:52:38;;;;;;;;;;;;;;;14.51;55.62;96273.75;6269918;28;19929;-65
2022/07/05 02:55:39;;;;;;;;;;;;;;;14.69;55.19;96274.78;6270654;28;19947;-65
2022/07/05 02:58:43;;;;;;;;;;;;;;;14.86;54.65;96285.63;6270045;28;19925;-65
2022/07/05 03:01:44;;;;;;;;;;;;;;;14.87;54.32;96282.03;6269592;28;20417;-64
2022/07/05 03:04:47;;;;;;;;;;;;;;;14.76;54.25;96285.66;6270140;28;19925;-65
2022/07/05 03:07:51;;;;;;;;;;;;;;;14.72;54.53;96279.78;6270168;28;19924;-64
2022/07/05 03:10:55;;;;;;;;;;;;;;;14.91;54.17;96278.09;6265658;28;19924;-65
2022/07/05 03:13:56;;;;;;;;;;;;;;;15.04;54.00;96283.94;6268273;28;20706;-64
2022/07/05 03:16:57;;;;;;;;;;;;;;;15.14;53.49;96279.44;6267283;28;20015;-65
2022/07/05 03:19:58;;;;;;;;;;;;;;;14.86;53.76;96289.13;6267976;28;19981;-64
2022/07/05 03:23:04;;;;;;;;;;;;;;;14.69;54.46;96288.03;6270165;28;19924;-65
2022/07/05 03:26:09;;;;;;;;;;;;;;;14.91;53.93;96294.00;6269494;28;20310;-65
2022/07/05 03:29:13;;;;;;;;;;;;;;;15.18;53.33;96290.63;6268141;28;20227;-64
2022/07/05 03:32:13;;;;;;;;;;;;;;;15.45;52.70;96287.19;6268406;28;19933;-65
2022/07/05 03:35:17;;;;;;;;;;;;;;;15.62;52.06;96288.25;6268595;28;19925;-65
2022/07/05 03:38:20;;;;;;;;;;;;;;;15.39;51.99;96287.78;6269636;28;20019;-64
2022/07/05 03:41:21;;;;;;;;;;;;;;;15.11;52.95;96290.34;6268808;28;20361;-64
2022/07/05 03:44:23;;;;;;;;;;;;;;;14.94;52.65;96291.06;6268121;28;19929;-65
2022/07/05 03:47:27;;;;;;;;;;;;;;;14.68;52.62;96296.09;6267805;28;19928;-65
2022/07/05 03:50:31;;;;;;;;;;;;;;;14.61;53.01;96298.47;6268338;28;19931;-64
2022/07/05 03:53:32;;;;;;;;;;;;;;;15.00;51.90;96298.44;6268031;28;20462;-65
2022/07/05 03:56:33;;;;;;;;;;;;;;;15.29;51.04;96293.13;6268027;28;19953;-65
2022/07/05 03:59:34;;;;;;;;;;;;;;;15.19;51.12;96287.00;6267711;28;19924;-65
2022/07/05 04:02:38;;;;;;;;;;;;;;;15.02;51.67;96288.53;6268057;28;19925;-65
2022/07/05 04:05:41;;;;;;;;;;;;;;;14.89;52.11;96293.28;6268061;28;19920;-65
2022/07/05 04:08:45;;;;;;;;;;;;;;;14.78;52.59;96295.13;6268113;28;19925;-66
2022/07/05 04:11:46;;;;;;;;;;;;;;;14.96;52.50;96291.75;6268546;28;20417;-65
2022/07/05 04:14:49;;;;;;;;;;;;;;;14.99;52.45;96307.38;6267729;28;19925;-65
2022/07/05 04:17:54;;;;;;;;;;;;;;;15.04;52.44;96294.53;6267919;28;20074;-65
2022/07/05 04:20:57;;;;;;;;;;;;;;;15.13;52.76;96292.88;6268172;28;19955;-65
2022/07/05 04:23:58;;;;;;;;;;;;;;;15.35;51.91;96297.84;6265132;28;19931;-65
2022/07/05 04:27:02;;;;;;;;;;;;;;;15.33;51.36;96298.97;6266267;28;19924;-65
2022/07/05 04:30:05;;;;;;;;;;;;;;;15.43;50.25;96302.44;6264003;28;19928;-65
2022/07/05 04:33:09;;;;;;;;;;;;;;;15.24;50.54;96301.50;6265790;28;19925;-65
2022/07/05 04:36:12;;;;;;;;;;;;;;;15.19;50.12;96293.13;6265591;28;20015;-65
2022/07/05 04:39:15;;;;;;;;;;;;;;;15.07;50.59;96299.56;6267613;28;19947;-66
2022/07/05 04:42:18;;;;;;;;;;;;;;;15.17;50.27;96302.19;6267894;28;19931;-65
2022/07/05 04:45:22;;;;;;;;;;;;;;;15.04;50.65;96299.84;6265955;28;19921;-66
2022/07/05 04:48:23;;;;;;;;;;;;;;;15.21;50.47;96307.06;6266898;28;19964;-66
2022/07/05 04:51:24;;;;;;;;;;;;;;;16.05;48.55;96300.97;6266305;28;19928;-65
2022/07/05 04:54:27;;;;;;;;;;;;;;;17.68;46.40;96312.25;6267086;28;19931;-64
2022/07/05 04:57:40;;;;;;;;;;;;;;;19.65;43.08;96312.75;6260571;28;19932;-64
2022/07/05 05:00:44;;;;;;;;;;;;;;;22.04;39.40;96322.66;6264746;28;19936;-65
2022/07/05 05:03:49;;;;;;;;;;;;;;;25.39;34.52;96313.28;6267516;28;20390;-65
2022/07/05 05:06:50;;;;;;;;;;;;;;;28.55;31.38;96325.63;6267035;28;19924;-64
2022/07/05 05:09:51;;;;;;;;;;;;;;;32.13;27.65;96328.22;6265802;28;19968;-64
2022/07/05 05:12:55;;;;;;;;;;;;;;;31.48;28.27;96323.31;6270191;28;19921;-64
2022/07/05 05:15:56;;;;;;;;;;;;;;;29.37;30.57;96319.75;6265103;28;19928;-65
2022/07/05 05:18:57;;;;;;;;;;;;;;;28.24;30.41;96314.91;6266504;28;19921;-64
2022/07/05 05:21:58;;;;;;;;;;;;;;;29.67;29.00;96321.63;6266817;28;19925;-65
2022/07/05 05:25:00;;;;;;;;;;;;;;;31.69;26.69;96328.03;6266597;28;20298;-64
2022/07/05 05:28:03;;;;;;;;;;;;;;;33.53;24.78;96327.78;6266813;28;19924;-65
2022/07/05 05:31:09;;;;;;;;;;;;;;;32.18;25.61;96320.09;6263500;28;20433;-65
2022/07/05 05:34:15;;;;;;;;;;;;;;;31.61;27.35;96320.28;6267134;28;19948;-65
2022/07/05 05:37:19;;;;;;;;;;;;;;;30.39;28.31;96308.66;6267125;28;20302;-65
2022/07/05 05:40:21;;;;;;;;;;;;;;;30.27;26.81;96312.47;6264638;28;19932;-65
2022/07/05 05:43:24;;;;;;;;;;;;;;;29.03;26.45;96313.16;6265652;28;19931;-62
2022/07/05 05:46:28;;;;;;;;;;;;;;;28.32;27.58;96306.50;6268340;28;19925;-62
2022/07/05 05:49:29;;;;;;;;;;;;;;;29.81;24.41;96309.50;6274764;28;19925;-62
2022/07/05 05:52:30;;;;;;;;;;;;;;;32.11;22.48;96322.19;6267829;28;19970;-64
2022/07/05 05:55:31;;;;;;;;;;;;;;;33.89;21.19;96325.38;6267990;28;19925;-61
2022/07/05 05:58:32;;;;;;;;;;;;;;;36.05;18.40;96316.94;6268197;28;19925;-62
2022/07/05 06:01:36;;;;;;;;;;;;;;;34.61;19.20;96314.94;6270902;28;19968;-62
2022/07/05 06:04:37;;;;;;;;;;;;;;;32.31;20.82;96309.94;6278133;28;19925;-62
2022/07/05 06:07:45;;;;;;;;;;;;;;;31.59;21.44;96308.81;6270771;28;19931;-62
2022/07/05 06:10:46;;;;;;;;;;;;;;;35.04;19.34;96318.38;6266730;28;19936;-62
2022/07/05 06:13:47;;;;;;;;;;;;;;;34.87;19.54;96322.16;6274085;28;19920;-62
2022/07/05 06:16:48;;;;;;;;;;;;;;;35.87;17.53;96322.91;6269887;28;20051;-63
2022/07/05 06:19:51;;;;;;;;;;;;;;;36.02;17.87;96322.09;6263525;28;19942;-64
2022/07/05 06:22:53;;;;;;;;;;;;;;;33.27;20.65;96307.59;6267943;28;19928;-63
2022/07/05 06:25:54;;;;;;;;;;;;;;;30.81;21.45;96307.66;6269888;28;19925;-62
2022/07/05 06:28:55;;;;;;;;;;;;;;;29.10;23.16;96297.63;6265148;28;19932;-62
2022/07/05 06:32:01;;;;;;;;;;;;;;;28.23;22.95;96297.03;6270213;28;19925;-62
2022/07/05 06:35:05;;;;;;;;;;;;;;;27.22;24.27;96296.22;6264277;28;20739;-62
2022/07/05 06:38:07;;;;;;;;;;;;;;;30.03;21.63;96296.16;6264468;28;19921;-62
2022/07/05 06:41:08;;;;;;;;;;;;;;;30.75;20.96;96298.53;6269952;28;19931;-62
2022/07/05 06:44:09;;;;;;;;;;;;;;;30.88;20.48;96305.59;6266275;28;20283;-62
2022/07/05 06:47:15;;;;;;;;;;;;;;;30.43;21.58;96293.56;6259415;28;19924;-65
2022/07/05 06:50:16;;;;;;;;;;;;;;;30.97;20.87;96296.03;6264816;28;20318;-62
2022/07/05 06:53:17;;;;;;;;;;;;;;;31.97;19.04;96304.56;6266556;28;19927;-63
2022/07/05 06:56:18;;;;;;;;;;;;;;;30.37;21.09;96299.91;6265989;28;19932;-61
2022/07/05 06:59:19;;;;;;;;;;;;;;;28.54;22.88;96293.38;6256203;28;19921;-63
2022/07/05 07:02:22;;;;;;;;;;;;;;;26.96;24.81;96295.31;6266163;28;19929;-65
2022/07/05 07:05:24;;;;;;;;;;;;;;;25.81;25.47;96300.44;6268484;28;19921;-62
2022/07/05 07:11:45;;;;;;;;;;;;;;;23.65;28.27;96297.41;6268551;28;20318;-62
2022/07/05 07:14:51;;;;;;;;;;;;;;;22.96;29.43;96291.88;6268420;28;19929;-61
2022/07/05 07:17:53;;;;;;;;;;;;;;;22.27;30.64;96285.06;6268252;28;19944;-62
2022/07/05 07:20:54;;;;;;;;;;;;;;;21.72;31.11;96286.34;6276487;28;20336;-65
2022/07/05 07:23:55;;;;;;;;;;;;;;;22.14;30.72;96284.88;6268206;28;20023;-66
2022/07/05 07:27:02;;;;;;;;;;;;;;;22.89;29.46;96288.22;6267442;28;20314;-65
2022/07/05 07:30:04;;;;;;;;;;;;;;;23.60;28.78;96294.47;6269714;28;19931;-66
2022/07/05 07:33:08;;;;;;;;;;;;;;;23.78;28.33;96302.09;6268497;28;20418;-67
2022/07/05 07:36:11;;;;;;;;;;;;;;;23.11;29.56;96297.97;6268190;28;19924;-64
2022/07/05 07:39:13;;;;;;;;;;;;;;;22.44;30.54;96307.13;6268193;28;19925;-65
2022/07/05 07:42:16;;;;;;;;;;;;;;;22.18;31.15;96307.63;6267037;28;20352;-65
2022/07/05 07:45:17;;;;;;;;;;;;;;;21.91;31.70;96304.56;6266529;28;20311;-65
2022/07/05 07:48:20;;;;;;;;;;;;;;;22.22;30.96;96303.53;6267403;28;19929;-66
2022/07/05 07:51:21;;;;;;;;;;;;;;;23.11;30.12;96311.41;6268609;28;19935;-66
2022/07/05 07:54:22;;;;;;;;;;;;;;;23.54;30.16;96309.50;6264497;28;19925;-65
2022/07/05 07:57:26;;;;;;;;;;;;;;;23.12;30.86;96305.00;6266871;28;19928;-65
2022/07/05 08:00:28;;;;;;;;;;;;;;;22.61;31.41;96308.56;6261727;28;19928;-64
2022/07/05 08:03:32;;;;;;;;;;;;;;;22.34;32.01;96314.63;6261853;28;19924;-65
2022/07/05 08:06:33;;;;;;;;;;;;;;;22.08;32.33;96315.06;6250002;28;19925;-65
2022/07/05 08:09:36;;;;;;;;;;;;;;;21.87;32.73;96321.16;6266726;28;19928;-65
2022/07/05 08:12:40;;;;;;;;;;;;;;;21.51;33.38;96311.13;6261585;28;19924;-66
2022/07/05 08:15:41;;;;;;;;;;;;;;;21.23;33.69;96309.03;6266339;28;19925;-66
2022/07/05 08:22:01;;;;;;;;;;;;;;;21.44;33.69;96315.56;6263536;28;19959;-65
2022/07/05 08:25:05;;;;;;;;;;;;;;;21.54;33.90;96316.13;6267956;28;19924;-65
2022/07/05 08:28:08;;;;;;;;;;;;;;;21.56;33.31;96302.56;6266341;28;19925;-66
2022/07/05 08:31:09;;;;;;;;;;;;;;;22.32;32.38;96309.44;6268501;28;19925;-64
2022/07/05 08:34:11;;;;;;;;;;;;;;;24.51;29.93;96310.56;6266662;28;19931;-66
2022/07/05 08:37:19;;;;;;;;;;;;;;;27.75;26.18;96307.44;6267501;28;19924;-65
2022/07/05 08:40:22;;;;;;;;;;;;;;;30.13;23.89;96320.00;6267036;28;19924;-65
2022/07/05 08:43:27;;;;;;;;;;;;;;;33.83;21.08;96333.75;6267810;28;20011;-65
2022/07/05 08:46:32;;;;;;;;;;;;;;;35.33;19.25;96342.53;6267838;28;20016;-65
2022/07/05 08:49:37;;;;;;;;;;;;;;;34.10;20.11;96336.47;6266617;28;19925;-65
2022/07/05 08:52:39;;;;;;;;;;;;;;;31.33;22.53;96338.25;6263451;28;19925;-65
2022/07/05 08:55:43;;;;;;;;;;;;;;;28.27;24.49;96336.09;6267090;28;19924;-66
2022/07/05 08:58:44;;;;;;;;;;;;;;;25.83;27.85;96336.13;6266209;28;19929;-65
2022/07/05 09:01:48;;;;;;;;;;;;;;;24.16;29.43;96324.00;6267505;28;19931;-68
2022/07/05 09:04:52;;;;;;;;;;;;;;;23.18;30.95;96324.88;6266813;28;19925;-65
2022/07/05 09:08:00;;;;;;;;;;;;;;;22.15;32.15;96324.03;6265514;28;19924;-66
2022/07/05 09:11:02;;;;;;;;;;;;;;;21.61;32.97;96330.44;6267013;28;19931;-66
2022/07/05 09:14:05;;;;;;;;;;;;;;;21.21;33.51;96326.25;6267635;28;19921;-65
2022/07/05 09:17:11;;;;;;;;;;;;;;;21.22;33.39;96322.56;6265221;28;19928;-65
2022/07/05 09:20:16;;;;;;;;;;;;;;;21.28;33.81;96328.00;6263246;28;19925;-66
2022/07/05 09:23:20;;;;;;;;;;;;;;;21.21;33.88;96332.44;6267504;28;20414;-66
2022/07/05 09:26:49;;;;;;;;;;;;;;;21.04;34.30;96331.72;6267701;28;19920;-65
2022/07/05 09:29:56;;;;;;;;;;;;;;;21.10;33.80;96335.53;6260387;28;20365;-66
2022/07/05 09:33:03;;;;;;;;;;;;;;;21.23;33.68;96338.44;6268297;28;20401;-65
2022/07/05 09:36:07;;;;;;;;;;;;;;;21.53;33.32;96331.34;6269065;28;19925;-66
2022/07/05 09:39:08;;;;;;;;;;;;;;;21.78;32.75;96333.81;6268399;28;20413;-65
2022/07/05 09:42:10;;;;;;;;;;;;;;;22.24;32.29;96335.53;6268576;28;20420;-66
2022/07/05 09:45:11;;;;;;;;;;;;;;;22.64;31.60;96324.25;6268115;28;19925;-67
2022/07/05 09:48:15;;;;;;;;;;;;;;;23.39;30.63;96334.78;6273493;28;19925;-65
2022/07/05 09:51:16;;;;;;;;;;;;;;;23.98;30.01;96321.84;6268729;28;19924;-66
2022/07/05 09:54:17;;;;;;;;;;;;;;;24.11;29.65;96326.47;6258609;28;19925;-65
2022/07/05 09:57:26;;;;;;;;;;;;;;;24.18;29.86;96313.91;6244058;28;19924;-66
2022/07/05 10:00:29;;;;;;;;;;;;;;;24.30;29.56;96329.47;6265837;28;20053;-65
2022/07/05 10:03:47;;;;;;;;;;;;;;;24.41;29.25;96320.84;6257763;28;19925;-65
2022/07/05 10:06:50;;;;;;;;;;;;;;;23.96;29.54;96318.50;6258076;28;19925;-66
2022/07/05 10:09:51;;;;;;;;;;;;;;;23.77;30.26;96323.75;6265183;28;19924;-66
2022/07/05 10:12:58;;;;;;;;;;;;;;;23.78;30.30;96320.03;6264410;28;19966;-66
2022/07/05 10:15:59;;;;;;;;;;;;;;;23.81;30.05;96316.94;6265572;28;19924;-65
2022/07/05 10:19:00;;;;;;;;;;;;;;;23.80;29.67;96326.03;6266280;28;19929;-66
2022/07/05 10:22:02;;;;;;;;;;;;;;;23.75;29.64;96316.72;6262224;28;21664;-65
2022/07/05 10:25:03;;;;;;;;;;;;;;;23.44;30.06;96330.50;6265552;28;19929;-65
2022/07/05 10:28:09;;;;;;;;;;;;;;;23.38;30.33;96327.75;6263148;28;20402;-66
2022/07/05 10:31:11;;;;;;;;;;;;;;;23.52;29.73;96337.56;6269926;28;20357;-65
2022/07/05 10:34:15;;;;;;;;;;;;;;;23.53;29.85;96333.88;6264330;28;19924;-65
2022/07/05 10:37:17;;;;;;;;;;;;;;;23.61;29.85;96332.88;6256680;28;19940;-66
2022/07/05 10:40:18;;;;;;;;;;;;;;;23.70;29.66;96329.06;6291807;28;19931;-66
2022/07/05 10:43:23;;;;;;;;;;;;;;;23.64;29.66;96336.03;6288984;28;19929;-66
2022/07/05 10:46:34;;;;;;;;;;;;;;;23.49;30.09;96332.59;6283596;28;19924;-66
2022/07/05 10:49:38;;;;;;;;;;;;;;;23.51;29.80;96338.59;6295315;28;19928;-65
2022/07/05 10:52:59;;;;;;;;;;;;;;;23.42;29.31;96331.72;6294972;28;19931;-65
2022/07/05 10:56:05;;;;;;;;;;;;;;;23.19;29.36;96334.59;6283955;28;20429;-66
2022/07/05 10:59:09;;;;;;;;;;;;;;;22.70;29.84;96332.59;6282258;28;20381;-65
2022/07/05 11:02:15;;;;;;;;;;;;;;;22.13;30.79;96331.41;6284746;28;20420;-67
2022/07/05 11:05:16;;;;;;;;;;;;;;;21.67;31.23;96331.56;6283394;28;19929;-69
2022/07/05 11:08:22;;;;;;;;;;;;;;;21.06;32.22;96335.06;6296222;28;20370;-69
2022/07/05 11:11:27;;;;;;;;;;;;;;;20.58;33.15;96331.69;6296830;28;19925;-68
2022/07/05 11:14:31;;;;;;;;;;;;;;;20.13;33.73;96332.34;6281572;28;19928;-68
2022/07/05 11:17:36;;;;;;;;;;;;;;;19.78;34.43;96342.44;6297099;28;20348;-69
2022/07/05 11:20:39;;;;;;;;;;;;;;;19.47;34.74;96334.25;6296180;28;19970;-69
2022/07/05 11:23:42;;;;;;;;;;;;;;;19.45;34.72;96330.94;6296526;28;20029;-70
2022/07/05 11:26:47;;;;;;;;;;;;;;;19.35;34.73;96332.94;6304351;28;20064;-68
2022/07/05 11:29:52;;;;;;;;;;;;;;;19.16;34.95;96329.59;6300101;28;21432;-68
2022/07/05 11:32:53;;;;;;;;;;;;;;;19.09;35.40;96333.94;6285804;28;19924;-69
2022/07/05 11:35:55;;;;;;;;;;;;;;;19.12;35.39;96332.78;6246501;28;19933;-69
2022/07/05 11:39:08;;;;;;;;;;;;;;;19.21;35.23;96324.59;6279991;28;20087;-68
2022/07/05 11:42:21;;;;;;;;;;;;;;;19.43;34.89;96324.94;6292103;28;20019;-68
2022/07/05 11:45:24;;;;;;;;;;;;;;;19.57;34.46;96316.25;6278062;28;19994;-68
2022/07/05 11:48:29;;;;;;;;;;;;;;;19.86;34.14;96321.06;6292700;28;20307;-68
2022/07/05 11:51:32;;;;;;;;;;;;;;;20.42;33.59;96315.69;6280526;28;20497;-69
2022/07/05 11:54:33;;;;;;;;;;;;;;;20.67;33.30;96318.28;6297646;28;19928;-69
2022/07/05 11:57:34;;;;;;;;;;;;;;;21.16;32.40;96315.25;6301011;28;19925;-69
2022/07/05 12:00:40;;;;;;;;;;;;;;;21.73;31.52;96314.78;6290999;28;19975;-69
2022/07/05 12:03:51;;;;;;;;;;;;;;;22.04;31.14;96316.47;6294395;28;19931;-69
2022/07/05 12:06:54;;;;;;;;;;;;;;;22.30;30.42;96316.00;6292438;28;19924;-69
2022/07/05 12:13:25;;;;;;;;;;;;;;;21.45;31.07;96312.69;6296090;28;19928;-68
2022/07/05 12:16:28;;;;;;;;;;;;;;;21.19;31.66;96310.38;6290068;28;19925;-67
2022/07/05 12:19:30;;;;;;;;;;;;;;;20.99;32.28;96303.84;6294754;28;19920;-68
2022/07/05 12:22:35;;;;;;;;;;;;;;;20.82;32.93;96313.81;6280800;28;19925;-63
2022/07/05 12:25:36;;;;;;;;;;;;;;;20.62;33.08;96310.78;6284138;28;19932;-64
2022/07/05 12:28:38;;;;;;;;;;;;;;;20.41;33.65;96303.34;6291384;28;20378;-65
2022/07/05 12:31:57;;;;;;;;;;;;;;;20.32;33.54;96299.03;6292111;28;19924;-64
2022/07/05 12:34:59;;;;;;;;;;;;;;;20.44;33.43;96308.34;6295800;28;19925;-65
2022/07/05 12:38:07;;;;;;;;;;;;;;;20.34;33.67;96308.53;6293526;28;19932;-65
2022/07/05 12:41:09;;;;;;;;;;;;;;;20.07;33.79;96311.63;6292515;28;19924;-65
2022/07/05 12:44:12;;;;;;;;;;;;;;;19.95;34.30;96305.84;6290412;28;19924;-64
2022/07/05 12:47:16;;;;;;;;;;;;;;;20.07;34.51;96311.63;6292347;28;19924;-65
2022/07/05 12:50:19;;;;;;;;;;;;;;;19.83;34.70;96309.91;6294323;28;20345;-65
2022/07/05 13:00:15;;;;;;;;;;;;;;;19.79;35.19;96311.22;6289160;28;19946;-65
2022/07/05 13:03:19;;;;;;;;;;;;;;;19.62;35.27;96310.41;6278893;28;19924;-64
2022/07/05 13:06:23;;;;;;;;;;;;;;;19.64;35.50;96313.72;6284919;28;20378;-64
2022/07/05 13:09:32;;;;;;;;;;;;;;;19.60;36.00;96313.25;6288985;28;19966;-65
2022/07/05 13:12:36;;;;;;;;;;;;;;;19.67;36.10;96300.94;6283873;28;19925;-64
2022/07/05 13:15:39;;;;;;;;;;;;;;;19.56;36.16;96309.25;6288232;28;19925;-65
2022/07/05 13:18:43;;;;;;;;;;;;;;;19.47;35.95;96307.59;6291210;28;19925;-65
2022/07/05 13:21:44;;;;;;;;;;;;;;;19.44;35.98;96302.59;6273070;28;19963;-66
2022/07/05 13:24:54;;;;;;;;;;;;;;;19.41;36.34;96300.25;6287223;28;19925;-65
2022/07/05 13:27:59;;;;;;;;;;;;;;;19.85;35.64;96298.03;6288582;28;20305;-65
2022/07/05 13:31:00;;;;;;;;;;;;;;;19.90;35.24;96302.84;6290218;28;19931;-66
2022/07/05 13:34:08;;;;;;;;;;;;;;;19.89;34.56;96307.38;6265823;28;19957;-65
2022/07/05 13:37:09;;;;;;;;;;;;;;;19.55;34.79;96302.25;6286148;28;19975;-65
2022/07/05 13:40:11;;;;;;;;;;;;;;;19.47;35.44;96304.91;6290175;28;19932;-65
2022/07/05 13:43:16;;;;;;;;;;;;;;;19.34;35.62;96310.78;6286037;28;19928;-65
2022/07/05 13:46:19;;;;;;;;;;;;;;;19.43;36.04;96308.94;6284886;28;19928;-65
2022/07/05 13:49:25;;;;;;;;;;;;;;;19.22;36.39;96310.28;6278798;28;19928;-65
2022/07/05 13:52:32;;;;;;;;;;;;;;;19.11;36.59;96315.09;6291129;28;19924;-65
2022/07/05 13:55:35;;;;;;;;;;;;;;;19.19;36.85;96312.44;6283672;28;19925;-65
2022/07/05 13:58:36;;;;;;;;;;;;;;;18.93;36.98;96317.94;6291540;28;19975;-65
2022/07/05 14:01:40;;;;;;;;;;;;;;;18.74;37.33;96319.06;6287942;28;19925;-64
2022/07/05 14:04:40;;;;;;;;;;;;;;;18.63;37.45;96322.84;6284970;28;21638;-64
2022/07/05 14:07:45;;;;;;;;;;;;;;;18.57;37.55;96320.81;6288954;28;19928;-64
2022/07/05 14:10:50;;;;;;;;;;;;;;;18.57;37.38;96318.16;6287608;28;19924;-63
2022/07/05 14:13:52;;;;;;;;;;;;;;;18.47;37.55;96328.13;6282713;28;19951;-67
2022/07/05 14:16:55;;;;;;;;;;;;;;;18.34;37.58;96329.44;6288442;28;19928;-64
2022/07/05 14:19:58;;;;;;;;;;;;;;;18.30;37.76;96338.72;6288619;28;19924;-65
2022/07/05 14:23:00;;;;;;;;;;;;;;;18.23;38.06;96337.72;6290199;28;20321;-66
2022/07/05 14:26:06;;;;;;;;;;;;;;;18.01;38.46;96332.94;6288803;28;19921;-66
2022/07/05 14:29:10;;;;;;;;;;;;;;;17.72;38.85;96344.72;6291297;28;19924;-63
2022/07/05 14:32:11;;;;;;;;;;;;;;;17.58;39.02;96343.47;6292753;28;20010;-64
2022/07/05 14:35:14;;;;;;;;;;;;;;;17.44;39.20;96347.53;6290423;28;20318;-63
2022/07/05 14:38:15;;;;;;;;;;;;;;;17.32;39.50;96340.78;6292521;28;19925;-75
2022/07/05 14:41:16;;;;;;;;;;;;;;;17.32;39.78;96338.09;6292891;28;19924;-63
2022/07/05 14:44:17;;;;;;;;;;;;;;;17.30;40.03;96352.56;6291067;28;19986;-71
2022/07/05 14:47:26;;;;;;;;;;;;;;;17.21;39.96;96346.31;6289815;28;19924;-64
2022/07/05 14:50:27;;;;;;;;;;;;;;;17.13;40.13;96347.13;6284749;28;20045;-63
2022/07/05 14:53:33;;;;;;;;;;;;;;;17.29;40.68;96349.06;6291585;28;19924;-63
2022/07/05 14:56:39;;;;;;;;;;;;;;;17.19;40.96;96348.31;6290524;28;19929;-63
2022/07/05 14:59:42;;;;;;;;;;;;;;;17.09;40.91;96355.53;6291165;28;19928;-64
2022/07/05 15:02:44;;;;;;;;;;;;;;;17.05;41.08;96358.50;6287696;28;20345;-63
2022/07/05 15:05:48;;;;;;;;;;;;;;;16.99;41.38;96358.28;6293549;28;19929;-67
2022/07/05 15:08:55;;;;;;;;;;;;;;;16.95;41.16;96352.41;6296876;28;19924;-68
2022/07/05 15:12:03;;;;;;;;;;;;;;;16.98;41.23;96360.06;6272273;28;20420;-67
2022/07/05 15:15:06;;;;;;;;;;;;;;;17.02;40.95;96358.81;6293667;28;20015;-69
2022/07/05 15:18:08;;;;;;;;;;;;;;;17.05;40.77;96355.00;6296355;28;20019;-69
2022/07/05 15:21:16;;;;;;;;;;;;;;;17.01;40.96;96357.16;6295722;28;19970;-69
2022/07/05 15:24:19;;;;;;;;;;;;;;;17.00;41.08;96358.13;6295436;28;20015;-70
2022/07/05 15:27:25;;;;;;;;;;;;;;;16.98;41.36;96362.75;6296322;28;19924;-69
2022/07/05 15:30:29;;;;;;;;;;;;;;;16.87;41.62;96360.34;6294987;28;20314;-69
2022/07/05 15:33:33;;;;;;;;;;;;;;;16.81;41.93;96364.44;6293059;28;19931;-70
2022/07/05 15:36:37;;;;;;;;;;;;;;;16.73;42.06;96368.75;6278573;28;20411;-69
2022/07/05 15:39:38;;;;;;;;;;;;;;;16.66;42.24;96359.75;6295625;28;19939;-68
2022/07/05 15:42:58;;;;;;;;;;;;;;;16.62;42.55;96351.25;6295676;28;19978;-71
2022/07/05 15:46:00;;;;;;;;;;;;;;;16.53;42.69;96352.13;6282358;28;20378;-68
2022/07/05 15:49:09;;;;;;;;;;;;;;;16.48;42.88;96349.91;6295290;28;20337;-69
2022/07/05 15:52:18;;;;;;;;;;;;;;;16.42;43.05;96355.84;6295760;28;20290;-66
2022/07/05 15:55:42;;;;;;;;;;;;;;;16.42;43.12;96355.84;6295402;28;20382;-67
2022/07/05 15:58:45;;;;;;;;;;;;;;;16.38;43.33;96359.75;6293943;28;19931;-66
2022/07/05 16:01:50;;;;;;;;;;;;;;;16.31;43.41;96356.88;6306904;28;20022;-67
2022/07/05 16:04:56;;;;;;;;;;;;;;;16.29;43.67;96360.66;6295101;28;19924;-66
2022/07/05 16:07:59;;;;;;;;;;;;;;;16.26;43.93;96360.94;6294647;28;20333;-64
2022/07/05 16:11:01;;;;;;;;;;;;;;;16.15;43.83;96365.44;6294629;28;20317;-64
2022/07/05 16:14:05;;;;;;;;;;;;;;;16.07;44.01;96373.31;6295265;28;19928;-65
2022/07/05 16:17:06;;;;;;;;;;;;;;;16.07;44.43;96373.31;6294403;28;20479;-66